Time;durP1;ratioP1;P1;durP2;ratioP2;P2;SDS_P1;SDS_P2;PMS_P1;PMS_P2;Temp;Humidity;BMP_temperature;BMP_pressure;BME280_temperature;BME280_humidity;BME280_pressure;Samples;Min_cycle;Max_cycle;Signal;HPM_P1;HPM_P2
2023/04/25 00:01:05;;;;;;;;;;;;;;;-144.99;100.00;52378.78;4972456;28;20407;-73
2023/04/25 00:03:31;;;;;;;;;;;;;;;-144.99;100.00;52360.44;4972254;28;19933;-73
2023/04/25 00:06:01;;;;;;;;;;;;;;;-144.99;99.92;52391.03;4969438;28;19926;-73
2023/04/25 00:08:28;;;;;;;;;;;;;;;-144.99;99.33;52346.19;4983558;28;19926;-73
2023/04/25 00:10:56;;;;;;;;;;;;;;;-144.99;98.68;52415.47;4985101;28;19926;-73
2023/04/25 00:13:22;;;;;;;;;;;;;;;-144.99;100.00;52397.13;4984572;28;19926;-74
2023/04/25 00:15:49;;;;;;;;;;;;;;;-144.99;98.51;52388.97;4977335;28;19992;-73
2023/04/25 00:18:15;;;;;;;;;;;;;;;-144.99;98.45;52386.94;4965820;28;20002;-73
2023/04/25 00:20:44;;;;;;;;;;;;;;;-144.99;97.26;52391.03;4963261;28;19965;-73
2023/04/25 00:23:10;;;;;;;;;;;;;;;-144.99;100.00;52419.56;4973107;28;19942;-72
2023/04/25 00:25:37;;;;;;;;;;;;;;;-144.99;98.16;52374.72;4966835;28;19969;-73
2023/04/25 00:28:05;;;;;;;;;;;;;;;-144.99;97.30;52415.47;4962943;28;19972;-73
2023/04/25 00:30:31;;;;;;;;;;;;;;;-144.99;97.09;52382.88;4976086;28;20237;-73
2023/04/25 00:32:58;;;;;;;;;;;;;;;-144.99;96.55;52380.84;4977653;28;20488;-74
2023/04/25 00:35:24;;;;;;;;;;;;;;;-144.99;96.33;52407.31;4974895;28;19926;-75
2023/04/25 00:37:51;;;;;;;;;;;;;;;-144.99;95.26;52382.88;4987661;28;19930;-74
2023/04/25 00:40:17;;;;;;;;;;;;;;;-144.99;94.50;52391.03;4982876;28;19993;-74
2023/04/25 00:42:44;;;;;;;;;;;;;;;-144.99;94.04;52399.19;4969514;28;19945;-74
2023/04/25 00:45:14;;;;;;;;;;;;;;;-144.99;94.46;52454.22;4977213;28;19953;-73
2023/04/25 00:47:40;;;;;;;;;;;;;;;-144.99;94.14;52362.50;4978577;28;20479;-72
2023/04/25 00:50:08;;;;;;;;;;;;;;;-144.99;93.47;52413.44;4973002;28;19926;-73
2023/04/25 00:52:35;;;;;;;;;;;;;;;-144.99;93.36;52403.25;4974100;28;19965;-72
2023/04/25 00:55:01;;;;;;;;;;;;;;;-144.99;93.28;52382.88;4974748;28;19926;-73
2023/04/25 00:57:28;;;;;;;;;;;;;;;-144.99;94.36;52386.94;4971106;28;19926;-73
2023/04/25 00:59:55;;;;;;;;;;;;;;;-144.99;97.75;52386.94;4976213;28;19926;-73
2023/04/25 01:02:23;;;;;;;;;;;;;;;-144.99;96.87;52378.78;4966600;28;20280;-73
2023/04/25 01:04:49;;;;;;;;;;;;;;;-144.99;95.81;52395.09;4972376;28;19969;-73
2023/04/25 01:07:16;;;;;;;;;;;;;;;-144.99;95.50;52435.88;4967830;28;20157;-73
2023/04/25 01:09:42;;;;;;;;;;;;;;;-144.99;95.46;52370.63;4965474;28;20021;-73
2023/04/25 01:12:09;;;;;;;;;;;;;;;-144.99;94.72;52403.25;4971583;28;19926;-73
2023/04/25 01:14:35;;;;;;;;;;;;;;;-144.99;94.16;52397.13;4968446;28;19974;-74
2023/04/25 01:17:02;;;;;;;;;;;;;;;-144.99;94.90;52415.47;4979038;28;19914;-75
2023/04/25 01:19:30;;;;;;;;;;;;;;;-144.99;96.02;52448.09;4980378;28;19926;-74
2023/04/25 01:21:58;;;;;;;;;;;;;;;-144.99;95.91;52386.94;4964231;28;20401;-74
2023/04/25 01:24:25;;;;;;;;;;;;;;;-144.99;92.39;52378.78;4969032;28;20401;-74
2023/04/25 01:26:52;;;;;;;;;;;;;;;-144.99;91.53;52427.72;4968132;28;19937;-74
2023/04/25 01:32:23;;;;;;;;;;;;;;;-144.99;88.81;52380.84;4973339;28;19941;-72
2023/04/25 01:34:50;;;;;;;;;;;;;;;-144.99;88.36;52417.53;4995572;23;19925;-67
2023/04/25 01:37:18;;;;;;;;;;;;;;;-144.99;87.86;52395.09;5007423;28;19925;-64
2023/04/25 01:39:45;;;;;;;;;;;;;;;-144.99;87.63;52391.03;5006955;28;19944;-67
2023/04/25 01:42:14;;;;;;;;;;;;;;;-144.99;87.20;52403.25;5007803;28;20021;-67
2023/04/25 01:44:40;;;;;;;;;;;;;;;-144.99;87.09;52399.19;5011022;28;19925;-66
2023/04/25 01:47:07;;;;;;;;;;;;;;;-144.99;86.92;52403.25;5013227;28;19930;-71
2023/04/25 01:49:33;;;;;;;;;;;;;;;-144.99;86.97;52425.66;5016760;28;19929;-70
2023/04/25 01:52:00;;;;;;;;;;;;;;;-144.99;87.20;52468.47;5008304;28;19993;-70
2023/04/25 01:54:28;;;;;;;;;;;;;;;-144.99;87.07;52393.06;5015745;28;19929;-70
2023/04/25 01:56:58;;;;;;;;;;;;;;;-144.99;87.23;52415.47;5016478;28;19939;-70
2023/04/25 01:59:25;;;;;;;;;;;;;;;-144.99;87.96;52439.94;5008307;28;19964;-70
2023/04/25 02:01:51;;;;;;;;;;;;;;;-144.99;87.92;52441.97;5016005;28;19929;-70
2023/04/25 02:04:18;;;;;;;;;;;;;;;-144.99;89.11;52415.47;5009023;28;19926;-70
2023/04/25 02:06:44;;;;;;;;;;;;;;;-144.99;89.71;52399.19;5015148;28;19965;-70
2023/04/25 02:09:11;;;;;;;;;;;;;;;-144.99;90.08;52411.41;5018726;28;19929;-70
2023/04/25 02:12:12;;;;;;;;;;;;;;;-144.99;88.74;52448.09;5010697;28;19929;-70
2023/04/25 02:14:40;;;;;;;;;;;;;;;-144.99;89.20;52444.03;5017043;28;19929;-69
2023/04/25 02:17:06;;;;;;;;;;;;;;;-144.99;89.67;52391.03;5010381;28;19970;-71
2023/04/25 02:19:33;;;;;;;;;;;;;;;-144.99;88.41;52407.31;5011009;28;19925;-72
2023/04/25 02:21:59;;;;;;;;;;;;;;;-144.99;87.53;52407.31;5012204;28;19964;-72
2023/04/25 02:24:27;;;;;;;;;;;;;;;-144.99;86.99;52409.38;5012893;28;20382;-72
2023/04/25 02:26:55;;;;;;;;;;;;;;;-144.99;86.93;52407.31;5020549;28;20325;-75
2023/04/25 02:29:22;;;;;;;;;;;;;;;-144.99;86.88;52448.09;5017577;28;20046;-76
2023/04/25 02:31:50;;;;;;;;;;;;;;;-144.99;86.28;52407.31;5016692;28;19956;-75
2023/04/25 02:34:16;;;;;;;;;;;;;;;-144.99;86.14;52444.03;5028551;28;19925;-76
2023/04/25 02:36:43;;;;;;;;;;;;;;;-144.99;85.72;52431.78;5018866;28;19964;-76
2023/04/25 02:39:10;;;;;;;;;;;;;;;-144.99;85.40;52427.72;5033850;28;19929;-76
2023/04/25 02:41:36;;;;;;;;;;;;;;;-144.99;85.20;52415.47;5027445;28;20371;-75
2023/04/25 02:44:03;;;;;;;;;;;;;;;-144.99;85.96;52448.09;5028803;28;19988;-75
2023/04/25 02:46:29;;;;;;;;;;;;;;;-144.99;85.16;52435.88;5025708;28;20416;-75
2023/04/25 02:48:57;;;;;;;;;;;;;;;-144.99;84.66;52409.38;5028984;28;19948;-74
2023/04/25 02:51:24;;;;;;;;;;;;;;;-144.99;83.97;52444.03;5023666;28;19927;-75
2023/04/25 02:53:51;;;;;;;;;;;;;;;-144.99;83.66;52415.47;5026758;28;19935;-66
2023/04/25 02:56:17;;;;;;;;;;;;;;;-144.99;84.47;52407.31;5024954;28;19925;-68
2023/04/25 02:58:45;;;;;;;;;;;;;;;-144.99;84.09;52397.13;5019660;28;19925;-68
2023/04/25 03:01:11;;;;;;;;;;;;;;;-144.99;83.44;52456.25;5018187;28;20409;-68
2023/04/25 03:03:38;;;;;;;;;;;;;;;-144.99;83.08;52456.25;5014158;28;19929;-68
2023/04/25 03:06:06;;;;;;;;;;;;;;;-144.99;82.79;52399.19;5015582;28;19929;-65
2023/04/25 03:08:34;;;;;;;;;;;;;;;-144.99;82.52;52431.78;5017596;28;19998;-66
2023/04/25 03:11:00;;;;;;;;;;;;;;;-144.99;82.39;52433.81;5012942;28;19926;-68
2023/04/25 03:13:29;;;;;;;;;;;;;;;-144.99;82.19;52427.72;5019058;28;19924;-66
2023/04/25 03:15:56;;;;;;;;;;;;;;;-144.99;82.02;52439.94;5011257;28;19938;-68
2023/04/25 03:18:25;;;;;;;;;;;;;;;-144.99;81.58;52456.25;5014043;28;20335;-69
2023/04/25 03:20:52;;;;;;;;;;;;;;;-144.99;81.60;52456.25;5014634;28;19960;-67
2023/04/25 03:23:20;;;;;;;;;;;;;;;-144.99;80.98;52448.09;5011689;28;19979;-67
2023/04/25 03:25:46;;;;;;;;;;;;;;;-144.99;80.47;52444.03;5015301;28;19925;-68
2023/04/25 03:28:13;;;;;;;;;;;;;;;-144.99;80.35;52427.72;5014235;28;20155;-71
2023/04/25 03:30:40;;;;;;;;;;;;;;;-144.99;79.90;52427.72;5019102;28;20067;-71
2023/04/25 03:33:06;;;;;;;;;;;;;;;-144.99;80.24;52429.75;5024076;28;19925;-71
2023/04/25 03:35:33;;;;;;;;;;;;;;;-144.99;80.05;52456.25;5017422;28;20004;-71
2023/04/25 03:38:00;;;;;;;;;;;;;;;-144.99;79.96;52386.94;5021314;28;19925;-70
2023/04/25 03:40:28;;;;;;;;;;;;;;;-144.99;80.32;52439.94;5024069;28;19930;-72
2023/04/25 03:42:54;;;;;;;;;;;;;;;-144.99;80.24;52441.97;5011743;28;20052;-71
2023/04/25 03:45:21;;;;;;;;;;;;;;;-144.99;80.19;52407.31;5023620;28;20449;-72
2023/04/25 03:47:47;;;;;;;;;;;;;;;-144.99;79.99;52444.03;5012442;28;19995;-72
2023/04/25 03:50:14;;;;;;;;;;;;;;;-144.99;80.11;52419.56;5015311;28;20303;-71
2023/04/25 03:52:40;;;;;;;;;;;;;;;-144.99;80.21;52456.25;5017372;28;19926;-71
2023/04/25 03:55:07;;;;;;;;;;;;;;;-144.99;80.41;52439.94;5020892;28;19933;-69
2023/04/25 03:57:35;;;;;;;;;;;;;;;-144.99;80.98;52454.22;5009105;28;19937;-65
2023/04/25 04:00:03;;;;;;;;;;;;;;;-144.99;81.27;52427.72;5018155;28;19980;-64
2023/04/25 04:02:29;;;;;;;;;;;;;;;-144.99;81.54;52456.25;5011780;28;20421;-65
2023/04/25 04:04:57;;;;;;;;;;;;;;;-144.99;82.07;52460.31;5017638;28;20001;-65
2023/04/25 04:07:23;;;;;;;;;;;;;;;-144.99;82.27;52476.63;5010297;28;19979;-65
2023/04/25 04:09:50;;;;;;;;;;;;;;;-144.99;82.23;52452.16;5016368;28;20378;-75
2023/04/25 04:12:16;;;;;;;;;;;;;;;-144.99;82.55;52435.88;5011697;28;19925;-75
2023/04/25 04:14:44;;;;;;;;;;;;;;;-144.99;83.03;52423.63;5010991;28;19971;-75
2023/04/25 04:17:11;;;;;;;;;;;;;;;-144.99;82.50;52497.00;5009625;28;19979;-73
2023/04/25 04:19:37;;;;;;;;;;;;;;;-144.99;82.09;52431.78;5010875;28;19953;-69
2023/04/25 04:22:04;;;;;;;;;;;;;;;-144.99;81.94;52444.03;5009071;28;19991;-69
2023/04/25 04:24:30;;;;;;;;;;;;;;;-144.99;81.65;52411.41;5008321;28;20294;-68
2023/04/25 04:26:57;;;;;;;;;;;;;;;-144.99;81.26;52431.78;5010891;28;20003;-71
2023/04/25 04:29:24;;;;;;;;;;;;;;;-144.99;80.96;52456.25;5009790;28;19959;-72
2023/04/25 04:31:52;;;;;;;;;;;;;;;-144.99;80.82;52437.91;5013097;28;19991;-71
2023/04/25 04:34:19;;;;;;;;;;;;;;;-144.99;80.84;52444.03;5013233;28;19968;-71
2023/04/25 04:36:46;;;;;;;;;;;;;;;-144.99;80.54;52468.47;5010819;28;20026;-72
2023/04/25 04:39:12;;;;;;;;;;;;;;;-144.99;80.31;52395.09;5017899;28;20025;-72
2023/04/25 04:41:39;;;;;;;;;;;;;;;-144.99;80.35;52419.56;5015469;28;19929;-71
2023/04/25 04:44:07;;;;;;;;;;;;;;;-144.99;80.47;52419.56;5017410;28;19933;-71
2023/04/25 04:46:37;;;;;;;;;;;;;;;-144.99;80.83;52437.91;5012672;28;19929;-71
2023/04/25 04:49:05;;;;;;;;;;;;;;;-144.99;82.43;52415.47;5014486;28;20291;-70
2023/04/25 04:51:32;;;;;;;;;;;;;;;-144.99;85.01;52464.41;5012207;28;20011;-69
2023/04/25 04:54:02;;;;;;;;;;;;;;;-144.99;89.95;52448.09;5020695;28;19986;-70
2023/04/25 04:56:29;;;;;;;;;;;;;;;-144.99;90.17;52429.75;5015984;28;19932;-70
2023/04/25 04:58:55;;;;;;;;;;;;;;;-144.99;91.96;52444.03;5009641;28;20024;-72
2023/04/25 05:01:22;;;;;;;;;;;;;;;-144.99;92.65;52407.31;5020581;28;19980;-72
2023/04/25 05:03:48;;;;;;;;;;;;;;;-144.99;92.40;52427.72;5017126;28;19945;-70
2023/04/25 05:06:16;;;;;;;;;;;;;;;-144.99;92.85;52427.72;5012789;28;19965;-70
2023/04/25 05:08:43;;;;;;;;;;;;;;;-144.99;92.68;52456.25;5013242;28;19976;-72
2023/04/25 05:11:10;;;;;;;;;;;;;;;-144.99;94.31;52403.25;5016289;28;20362;-61
2023/04/25 05:13:37;;;;;;;;;;;;;;;-144.99;94.24;52435.88;5023212;28;19925;-72
2023/04/25 05:16:04;;;;;;;;;;;;;;;-144.99;93.74;52431.78;5012669;28;19933;-74
2023/04/25 05:18:31;;;;;;;;;;;;;;;-144.99;93.36;52423.63;5025022;28;19930;-74
2023/04/25 05:20:58;;;;;;;;;;;;;;;-144.99;93.60;52448.09;5011821;28;19925;-77
2023/04/25 05:23:27;;;;;;;;;;;;;;;-144.99;93.77;52427.72;5013843;28;19936;-73
2023/04/25 05:25:54;;;;;;;;;;;;;;;-144.99;94.07;52441.97;5010469;28;19948;-77
2023/04/25 05:28:31;;;;;;;;;;;;;;;-144.99;93.69;52456.25;4712018;28;9999845;-69
2023/04/25 05:30:58;;;;;;;;;;;;;;;-144.99;93.94;52415.47;5017413;28;19925;-70
2023/04/25 05:33:25;;;;;;;;;;;;;;;-144.99;93.21;52411.41;5018868;28;19945;-68
2023/04/25 05:35:51;;;;;;;;;;;;;;;-144.99;92.71;52427.72;5013085;28;19986;-71
2023/04/25 05:38:20;;;;;;;;;;;;;;;-144.99;93.15;52444.03;5011189;28;20588;-69
2023/04/25 05:40:48;;;;;;;;;;;;;;;-144.99;92.37;52427.72;5005764;28;20366;-69
2023/04/25 05:43:14;;;;;;;;;;;;;;;-144.99;92.07;52441.97;5012428;28;20389;-70
2023/04/25 05:45:41;;;;;;;;;;;;;;;-144.99;91.52;52423.63;5018082;28;19972;-69
2023/04/25 05:48:08;;;;;;;;;;;;;;;-144.99;91.14;52399.19;5015739;28;20027;-68
2023/04/25 05:50:34;;;;;;;;;;;;;;;-144.99;90.91;52435.88;5007115;28;19937;-70
2023/04/25 05:53:00;;;;;;;;;;;;;;;-144.99;90.46;52435.88;5006283;28;19929;-70
2023/04/25 05:55:27;;;;;;;;;;;;;;;-144.99;89.51;52419.56;5013740;28;20180;-69
2023/04/25 05:57:55;;;;;;;;;;;;;;;-144.99;88.88;52382.88;5018541;28;19956;-69
2023/04/25 06:00:22;;;;;;;;;;;;;;;-144.99;88.63;52397.13;5018988;28;19925;-70
2023/04/25 06:02:49;;;;;;;;;;;;;;;-144.99;87.85;52431.78;5009902;28;20070;-71
2023/04/25 06:05:17;;;;;;;;;;;;;;;-144.99;87.56;52427.72;5010673;28;19937;-71
2023/04/25 06:07:44;;;;;;;;;;;;;;;-144.99;87.20;52431.78;5014109;28;19957;-70
2023/04/25 06:10:13;;;;;;;;;;;;;;;-144.99;87.76;52419.56;5020423;28;20376;-69
2023/04/25 06:12:40;;;;;;;;;;;;;;;-144.99;87.94;52411.41;5022513;28;19995;-69
2023/04/25 06:15:08;;;;;;;;;;;;;;;-144.99;88.93;52431.78;5023921;28;19979;-69
2023/04/25 06:17:37;;;;;;;;;;;;;;;-144.99;88.84;52382.88;5007776;28;19933;-70
2023/04/25 06:20:04;;;;;;;;;;;;;;;-144.99;88.45;52456.25;5016647;28;19941;-70
2023/04/25 06:22:31;;;;;;;;;;;;;;;-144.99;88.91;52407.31;5022288;28;20027;-70
2023/04/25 06:24:59;;;;;;;;;;;;;;;-144.99;89.49;52448.09;5022061;28;19933;-70
2023/04/25 06:27:26;;;;;;;;;;;;;;;-144.99;89.56;52405.28;5009274;28;20615;-71
2023/04/25 06:29:52;;;;;;;;;;;;;;;-144.99;89.34;52448.09;5011446;28;19969;-70
2023/04/25 06:32:20;;;;;;;;;;;;;;;-144.99;89.23;52444.03;5010760;28;19964;-69
2023/04/25 06:34:47;;;;;;;;;;;;;;;-144.99;89.11;52407.31;5013164;28;19983;-69
2023/04/25 06:37:13;;;;;;;;;;;;;;;-144.99;88.29;52395.09;5017867;28;19926;-69
2023/04/25 06:39:40;;;;;;;;;;;;;;;-144.99;88.05;52452.16;5025071;28;19937;-69
2023/04/25 06:42:07;;;;;;;;;;;;;;;-144.99;87.23;52407.31;5017566;28;19929;-68
2023/04/25 06:44:33;;;;;;;;;;;;;;;-144.99;86.76;52431.78;5020385;28;19933;-68
2023/04/25 06:47:00;;;;;;;;;;;;;;;-144.99;86.11;52399.19;5016774;28;19991;-68
2023/04/25 06:49:27;;;;;;;;;;;;;;;-144.99;85.67;52395.09;5011073;28;20203;-68
2023/04/25 06:51:54;;;;;;;;;;;;;;;-144.99;85.63;52439.94;4669237;28;10000164;-68
2023/04/25 06:54:21;;;;;;;;;;;;;;;-144.99;85.61;52425.66;5017748;28;19984;-68
2023/04/25 06:56:47;;;;;;;;;;;;;;;-144.99;84.87;52415.47;5018267;28;19929;-69
2023/04/25 06:59:14;;;;;;;;;;;;;;;-144.99;84.56;52391.03;5019096;28;19972;-69
2023/04/25 07:01:41;;;;;;;;;;;;;;;-144.99;83.80;52431.78;5019176;28;20029;-70
2023/04/25 07:04:08;;;;;;;;;;;;;;;-144.99;83.43;52382.88;5013294;28;20043;-69
2023/04/25 07:06:37;;;;;;;;;;;;;;;-144.99;83.53;52409.38;5007553;28;20024;-68
2023/04/25 07:09:04;;;;;;;;;;;;;;;-144.99;83.39;52423.63;5015082;28;19926;-68
2023/04/25 07:11:31;;;;;;;;;;;;;;;-144.99;84.07;52472.56;5010831;28;20397;-68
2023/04/25 07:13:57;;;;;;;;;;;;;;;-144.99;84.89;52431.78;5007855;28;19934;-68
2023/04/25 07:16:24;;;;;;;;;;;;;;;-144.99;85.17;52382.88;5007763;28;19965;-68
2023/04/25 07:18:50;;;;;;;;;;;;;;;-144.99;85.41;52378.78;5012778;28;19929;-68
2023/04/25 07:21:17;;;;;;;;;;;;;;;-144.99;85.63;52411.41;5008696;28;20456;-68
2023/04/25 07:23:45;;;;;;;;;;;;;;;-144.99;86.22;52415.47;5013017;28;19929;-68
2023/04/25 07:26:11;;;;;;;;;;;;;;;-144.99;86.39;52378.78;5016560;28;20394;-68
2023/04/25 07:28:38;;;;;;;;;;;;;;;-144.99;86.02;52386.94;5013042;28;19991;-68
2023/04/25 07:31:05;;;;;;;;;;;;;;;-144.99;85.57;52386.94;5016025;28;19957;-67
2023/04/25 07:33:31;;;;;;;;;;;;;;;-144.99;85.18;52437.91;5003269;28;20294;-69
2023/04/25 07:35:58;;;;;;;;;;;;;;;-144.99;85.21;52397.13;5015372;28;19929;-69
2023/04/25 07:38:24;;;;;;;;;;;;;;;-144.99;85.34;52415.47;5013386;28;20408;-68
2023/04/25 07:40:53;;;;;;;;;;;;;;;-144.99;84.71;52423.63;5013307;28;19933;-67
2023/04/25 07:43:19;;;;;;;;;;;;;;;-144.99;84.06;52401.22;5018144;28;19956;-68
2023/04/25 07:45:46;;;;;;;;;;;;;;;-144.99;83.89;52421.59;5007442;28;20358;-68
2023/04/25 07:48:12;;;;;;;;;;;;;;;-144.99;85.19;52464.41;5007213;28;19933;-69
2023/04/25 07:50:39;;;;;;;;;;;;;;;-144.99;86.49;52401.22;5015254;28;19937;-71
2023/04/25 07:53:06;;;;;;;;;;;;;;;-144.99;87.28;52407.31;5009324;28;19935;-70
2023/04/25 07:55:32;;;;;;;;;;;;;;;-144.99;87.92;52386.94;5024379;28;19929;-69
2023/04/25 07:58:00;;;;;;;;;;;;;;;-144.99;89.80;52427.72;5013298;28;20224;-69
2023/04/25 08:00:27;;;;;;;;;;;;;;;-144.99;90.01;52456.25;5018973;28;20119;-69
2023/04/25 08:02:54;;;;;;;;;;;;;;;-144.99;89.55;52403.25;5006685;28;19981;-70
2023/04/25 08:05:20;;;;;;;;;;;;;;;-144.99;89.18;52427.72;5016081;28;19929;-69
2023/04/25 08:07:47;;;;;;;;;;;;;;;-144.99;88.99;52399.19;5019641;28;20169;-71
2023/04/25 08:10:13;;;;;;;;;;;;;;;-144.99;88.63;52378.78;5018342;28;19960;-69
2023/04/25 08:12:40;;;;;;;;;;;;;;;-144.99;87.73;52417.53;5017762;28;19987;-69
2023/04/25 08:15:09;;;;;;;;;;;;;;;-144.99;87.19;52411.41;5008157;28;19933;-69
2023/04/25 08:17:36;;;;;;;;;;;;;;;-144.99;86.89;52399.19;5012026;28;20353;-69
2023/04/25 08:20:05;;;;;;;;;;;;;;;-144.99;86.19;52380.84;5013441;28;19930;-69
2023/04/25 08:22:31;;;;;;;;;;;;;;;-144.99;85.01;52391.03;5009137;28;20009;-70
2023/04/25 08:24:58;;;;;;;;;;;;;;;-144.99;84.79;52386.94;5008493;28;20020;-70
2023/04/25 08:27:24;;;;;;;;;;;;;;;-144.99;84.41;52386.94;5009583;28;19984;-69
2023/04/25 08:29:51;;;;;;;;;;;;;;;-144.99;84.00;52415.47;5014039;28;20370;-69
2023/04/25 08:32:19;;;;;;;;;;;;;;;-144.99;83.07;52415.47;5016863;28;19936;-68
2023/04/25 08:34:46;;;;;;;;;;;;;;;-144.99;82.46;52391.03;5016170;28;19929;-68
2023/04/25 08:37:13;;;;;;;;;;;;;;;-144.99;81.91;52358.41;5009213;28;19925;-68
2023/04/25 08:39:39;;;;;;;;;;;;;;;-144.99;79.15;52317.66;5011573;28;19944;-68
2023/04/25 08:42:07;;;;;;;;;;;;;;;-144.99;78.42;52346.19;5015177;28;19929;-69
2023/04/25 08:44:34;;;;;;;;;;;;;;;-144.99;76.17;52340.06;5012881;28;20679;-69
2023/04/25 08:47:02;;;;;;;;;;;;;;;-144.99;77.50;52350.25;5022192;28;19940;-69
2023/04/25 08:49:30;;;;;;;;;;;;;;;-144.99;77.55;52391.03;5009257;28;19933;-69
2023/04/25 08:52:00;;;;;;;;;;;;;;;-144.99;77.01;52366.56;5017850;28;19971;-68
2023/04/25 08:54:28;;;;;;;;;;;;;;;-144.99;76.88;52415.47;5021683;28;19971;-68
2023/04/25 08:56:55;;;;;;;;;;;;;;;-144.99;77.46;52374.72;5009151;28;20033;-68
2023/04/25 08:59:22;;;;;;;;;;;;;;;-144.99;77.48;52382.88;5010037;28;19925;-68
2023/04/25 09:01:49;;;;;;;;;;;;;;;-144.99;77.36;52393.06;5013514;28;19926;-68
2023/04/25 09:04:16;;;;;;;;;;;;;;;-144.99;77.10;52407.31;5016364;28;19925;-68
2023/04/25 09:06:45;;;;;;;;;;;;;;;-144.99;76.04;52366.56;5013875;28;19932;-68
2023/04/25 09:09:11;;;;;;;;;;;;;;;-144.99;74.22;52338.03;5012346;28;19947;-68
2023/04/25 09:11:39;;;;;;;;;;;;;;;-144.99;75.64;52391.03;5014476;28;19936;-68
2023/04/25 09:14:12;;;;;;;;;;;;;;;-144.99;77.07;52395.09;5007379;28;20437;-68
2023/04/25 09:16:57;;;;;;;;;;;;;;;-144.99;83.22;52407.31;5008126;28;19968;-73
2023/04/25 09:19:24;;;;;;;;;;;;;;;-144.99;89.63;52407.31;5009737;28;20196;-71
2023/04/25 09:21:54;;;;;;;;;;;;;;;-144.99;88.43;52439.94;5016153;28;20063;-71
2023/04/25 09:24:30;;;;;;;;;;;;;;;-144.99;88.26;52439.94;5019878;28;19929;-70
2023/04/25 09:26:57;;;;;;;;;;;;;;;-144.99;89.27;52354.34;5009471;28;20011;-69
2023/04/25 09:29:30;;;;;;;;;;;;;;;-144.99;89.08;52399.19;5015379;28;19983;-71
2023/04/25 09:32:11;;;;;;;;;;;;;;;-144.99;88.77;52382.88;5007895;28;20032;-71
2023/04/25 09:34:40;;;;;;;;;;;;;;;-144.99;85.92;52372.69;5011275;28;19957;-70
2023/04/25 09:37:08;;;;;;;;;;;;;;;-144.99;80.70;52362.50;5017570;28;19929;-70
2023/04/25 09:39:34;;;;;;;;;;;;;;;-144.99;80.63;52364.53;5005541;28;20027;-70
2023/04/25 09:42:01;;;;;;;;;;;;;;;-144.99;79.23;52415.47;5017103;28;19932;-71
2023/04/25 09:44:28;;;;;;;;;;;;;;;-144.99;80.01;52358.41;5009412;28;19965;-70
2023/04/25 09:46:54;;;;;;;;;;;;;;;-144.99;78.48;52372.69;5009204;28;20242;-70
2023/04/25 09:49:21;;;;;;;;;;;;;;;-144.99;75.67;52362.50;5006589;28;19960;-70
2023/04/25 09:51:55;;;;;;;;;;;;;;;-144.99;74.91;52407.31;5016733;28;19991;-70
2023/04/25 09:54:22;;;;;;;;;;;;;;;-144.99;74.72;52358.41;5011267;28;19965;-70
2023/04/25 09:56:52;;;;;;;;;;;;;;;-144.99;74.04;52378.78;5021466;28;20349;-69
2023/04/25 09:59:20;;;;;;;;;;;;;;;-144.99;74.98;52352.28;5017400;28;20318;-69
2023/04/25 10:01:49;;;;;;;;;;;;;;;-144.99;75.55;52350.25;5012756;28;19936;-69
2023/04/25 10:04:17;;;;;;;;;;;;;;;-144.99;75.10;52372.69;5008099;28;19929;-70
2023/04/25 10:06:44;;;;;;;;;;;;;;;-144.99;74.81;52378.78;5013996;28;19925;-69
2023/04/25 10:09:11;;;;;;;;;;;;;;;-144.99;74.13;52370.63;5006293;28;19925;-70
2023/04/25 10:11:40;;;;;;;;;;;;;;;-144.99;74.75;52358.41;5023580;28;19929;-71
2023/04/25 10:14:07;;;;;;;;;;;;;;;-144.99;74.67;52338.03;5008568;28;20206;-69
2023/04/25 10:16:34;;;;;;;;;;;;;;;-144.99;75.84;52358.41;5004398;28;19939;-69
2023/04/25 10:19:02;;;;;;;;;;;;;;;-144.99;74.37;52382.88;5005271;28;19937;-69
2023/04/25 10:21:30;;;;;;;;;;;;;;;-144.99;74.43;52399.19;5012821;28;19929;-69
2023/04/25 10:23:57;;;;;;;;;;;;;;;-144.99;74.33;52384.91;5005805;28;20031;-69
2023/04/25 10:26:24;;;;;;;;;;;;;;;-144.99;72.14;52358.41;5013236;28;19929;-68
2023/04/25 10:28:59;;;;;;;;;;;;;;;-144.99;71.15;52293.19;5014256;28;20282;-70
2023/04/25 10:31:26;;;;;;;;;;;;;;;-144.99;71.97;52333.94;5011518;28;19984;-69
2023/04/25 10:33:54;;;;;;;;;;;;;;;-144.99;70.79;52366.56;5007672;28;19933;-69
2023/04/25 10:36:22;;;;;;;;;;;;;;;-144.99;70.36;52289.13;5005009;28;20493;-69
2023/04/25 10:38:50;;;;;;;;;;;;;;;-144.99;69.00;52250.38;5005069;28;20310;-70
2023/04/25 10:41:18;;;;;;;;;;;;;;;-144.99;68.35;52223.88;5011516;28;19929;-69
2023/04/25 10:43:45;;;;;;;;;;;;;;;-144.99;68.90;52317.66;5029260;28;19934;-69
2023/04/25 10:46:18;;;;;;;;;;;;;;;-144.99;68.27;52352.28;5011929;28;20124;-69
2023/04/25 10:48:46;;;;;;;;;;;;;;;-144.99;70.03;52368.59;5018240;28;19925;-70
2023/04/25 10:51:13;;;;;;;;;;;;;;;-144.99;72.97;52374.72;5014880;28;19929;-69
2023/04/25 10:53:39;;;;;;;;;;;;;;;-144.99;75.37;52333.94;5015953;28;19929;-69
2023/04/25 10:56:10;;;;;;;;;;;;;;;-144.99;76.32;52378.78;5011946;28;20422;-69
2023/04/25 10:58:37;;;;;;;;;;;;;;;-144.99;76.64;52380.84;5009210;28;19933;-69
2023/04/25 11:01:03;;;;;;;;;;;;;;;-144.99;75.84;52423.63;5020849;28;19984;-70
2023/04/25 11:03:31;;;;;;;;;;;;;;;-144.99;77.05;52358.41;5011397;28;19964;-71
2023/04/25 11:05:59;;;;;;;;;;;;;;;-144.99;76.63;52338.03;5021033;28;19930;-70
2023/04/25 11:08:38;;;;;;;;;;;;;;;-144.99;75.72;52354.34;5015548;28;20036;-70
2023/04/25 11:11:05;;;;;;;;;;;;;;;-144.99;75.92;52431.78;5008110;28;19930;-70
2023/04/25 11:13:32;;;;;;;;;;;;;;;-144.99;76.24;52425.66;5015138;28;20456;-70
2023/04/25 11:15:58;;;;;;;;;;;;;;;-144.99;74.16;52227.97;5009919;28;19930;-70
2023/04/25 11:18:27;;;;;;;;;;;;;;;-144.99;72.10;52272.81;5007886;28;20205;-70
2023/04/25 11:20:54;;;;;;;;;;;;;;;-144.99;70.69;52244.28;5013874;28;20420;-70
2023/04/25 11:23:21;;;;;;;;;;;;;;;-144.99;70.76;52342.09;5010466;28;19934;-69
2023/04/25 11:25:48;;;;;;;;;;;;;;;-144.99;68.58;52317.66;5012971;28;20382;-69
2023/04/25 11:28:21;;;;;;;;;;;;;;;-144.99;69.23;52362.50;5013439;28;19979;-69
2023/04/25 11:30:48;;;;;;;;;;;;;;;-144.99;68.82;52225.94;5022180;28;20405;-69
2023/04/25 11:33:15;;;;;;;;;;;;;;;-144.99;66.57;52166.81;5012217;28;20039;-70
2023/04/25 11:35:41;;;;;;;;;;;;;;;-144.99;66.24;52215.75;5017376;28;20354;-69
2023/04/25 11:38:10;;;;;;;;;;;;;;;-144.99;65.08;52134.22;5012009;28;20401;-70
2023/04/25 11:40:37;;;;;;;;;;;;;;;-144.99;64.92;52219.81;5010248;28;19936;-69
2023/04/25 11:43:03;;;;;;;;;;;;;;;-144.99;64.55;52187.19;5020467;28;19937;-70
2023/04/25 11:45:30;;;;;;;;;;;;;;;-144.99;64.57;52172.94;5019798;28;19987;-70
2023/04/25 11:47:57;;;;;;;;;;;;;;;-144.99;64.69;52232.03;5009437;28;20462;-70
2023/04/25 11:50:23;;;;;;;;;;;;;;;-144.99;64.55;52187.19;5012697;28;20011;-70
2023/04/25 11:52:50;;;;;;;;;;;;;;;-144.99;64.99;52128.09;5010419;28;20669;-70
2023/04/25 11:55:19;;;;;;;;;;;;;;;-144.99;65.75;52213.69;5011621;28;20039;-70
2023/04/25 11:57:48;;;;;;;;;;;;;;;-144.99;67.18;52338.03;5006539;28;19933;-70
2023/04/25 12:00:16;;;;;;;;;;;;;;;-144.99;66.22;52166.81;5006784;28;20339;-70
2023/04/25 12:02:43;;;;;;;;;;;;;;;-144.99;66.28;52215.75;5018291;28;20066;-70
2023/04/25 12:05:10;;;;;;;;;;;;;;;-144.99;66.96;52252.44;5012213;28;20034;-70
2023/04/25 12:07:37;;;;;;;;;;;;;;;-144.99;67.18;52191.28;5013903;28;20253;-70
2023/04/25 12:10:08;;;;;;;;;;;;;;;-144.99;67.12;52195.34;5016305;28;19964;-69
2023/04/25 12:12:36;;;;;;;;;;;;;;;-144.99;67.23;52307.47;5016828;28;19933;-70
2023/04/25 12:15:09;;;;;;;;;;;;;;;-144.99;67.70;52370.63;5008030;28;20270;-70
2023/04/25 12:17:37;;;;;;;;;;;;;;;-144.99;67.34;52350.25;5009967;28;19992;-69
2023/04/25 12:20:09;;;;;;;;;;;;;;;-144.99;67.44;52191.28;5011376;28;20456;-69
2023/04/25 12:22:36;;;;;;;;;;;;;;;-144.99;66.42;52179.06;5014426;28;20018;-71
2023/04/25 12:25:03;;;;;;;;;;;;;;;-144.99;66.66;52338.03;5018008;28;20020;-69
2023/04/25 12:27:31;;;;;;;;;;;;;;;-144.99;67.84;52313.56;5010596;28;19999;-69
2023/04/25 12:29:59;;;;;;;;;;;;;;;-144.99;69.29;52358.41;5010161;28;19933;-69